sensor_id;sensor_type;location;lat;lon;timestamp;P1;durP1;ratioP1;P2;durP2;ratioP2
20655;SDS011;10487;53.320;8.672;2023-04-07T00:00:41;0.30;;;0.30;;
20655;SDS011;10487;53.320;8.672;2023-04-07T00:03:42;0.30;;;0.30;;
20655;SDS011;10487;53.320;8.672;2023-04-07T00:06:44;0.30;;;0.30;;
20655;SDS011;10487;53.320;8.672;2023-04-07T00:09:46;0.40;;;0.40;;
20655;SDS011;10487;53.320;8.672;2023-04-07T00:12:47;0.30;;;0.30;;
20655;SDS011;10487;53.320;8.672;2023-04-07T00:15:49;0.30;;;0.30;;
20655;SDS011;10487;53.320;8.672;2023-04-07T00:18:51;0.30;;;0.30;;
20655;SDS011;10487;53.320;8.672;2023-04-07T00:21:52;0.40;;;0.40;;
20655;SDS011;10487;53.320;8.672;2023-04-07T00:24:54;0.40;;;0.40;;
20655;SDS011;10487;53.320;8.672;2023-04-07T00:27:56;0.30;;;0.30;;
20655;SDS011;10487;53.320;8.672;2023-04-07T00:30:58;0.30;;;0.30;;
20655;SDS011;10487;53.320;8.672;2023-04-07T00:33:59;0.40;;;0.40;;
20655;SDS011;10487;53.320;8.672;2023-04-07T00:37:01;0.32;;;0.30;;
20655;SDS011;10487;53.320;8.672;2023-04-07T00:40:03;0.28;;;0.28;;
20655;SDS011;10487;53.320;8.672;2023-04-07T00:43:05;0.30;;;0.30;;
20655;SDS011;10487;53.320;8.672;2023-04-07T00:46:06;0.30;;;0.30;;
20655;SDS011;10487;53.320;8.672;2023-04-07T00:49:08;0.30;;;0.30;;
20655;SDS011;10487;53.320;8.672;2023-04-07T00:52:11;0.50;;;0.40;;
20655;SDS011;10487;53.320;8.672;2023-04-07T00:55:14;0.20;;;0.20;;
20655;SDS011;10487;53.320;8.672;2023-04-07T00:58:16;0.30;;;0.30;;
20655;SDS011;10487;53.320;8.672;2023-04-07T01:01:20;0.30;;;0.30;;
20655;SDS011;10487;53.320;8.672;2023-04-07T01:07:27;0.28;;;0.28;;
20655;SDS011;10487;53.320;8.672;2023-04-07T01:10:40;0.40;;;0.40;;
20655;SDS011;10487;53.320;8.672;2023-04-07T01:13:51;0.40;;;0.40;;
20655;SDS011;10487;53.320;8.672;2023-04-07T01:16:54;0.30;;;0.30;;
20655;SDS011;10487;53.320;8.672;2023-04-07T01:20:02;0.30;;;0.30;;
20655;SDS011;10487;53.320;8.672;2023-04-07T01:23:08;0.30;;;0.30;;
20655;SDS011;10487;53.320;8.672;2023-04-07T01:26:19;0.28;;;0.28;;
20655;SDS011;10487;53.320;8.672;2023-04-07T01:32:46;0.40;;;0.40;;
20655;SDS011;10487;53.320;8.672;2023-04-07T01:35:52;0.30;;;0.30;;
20655;SDS011;10487;53.320;8.672;2023-04-07T01:38:55;0.30;;;0.30;;
20655;SDS011;10487;53.320;8.672;2023-04-07T01:41:59;0.30;;;0.30;;
20655;SDS011;10487;53.320;8.672;2023-04-07T01:45:04;0.38;;;0.30;;
20655;SDS011;10487;53.320;8.672;2023-04-07T01:48:07;0.32;;;0.30;;
20655;SDS011;10487;53.320;8.672;2023-04-07T01:51:10;0.30;;;0.30;;
20655;SDS011;10487;53.320;8.672;2023-04-07T01:54:15;0.40;;;0.40;;
20655;SDS011;10487;53.320;8.672;2023-04-07T01:57:18;0.40;;;0.40;;
20655;SDS011;10487;53.320;8.672;2023-04-07T02:00:19;0.40;;;0.40;;
20655;SDS011;10487;53.320;8.672;2023-04-07T02:03:29;0.30;;;0.30;;
20655;SDS011;10487;53.320;8.672;2023-04-07T02:06:37;0.40;;;0.40;;
20655;SDS011;10487;53.320;8.672;2023-04-07T02:09:43;0.40;;;0.40;;
20655;SDS011;10487;53.320;8.672;2023-04-07T02:12:48;0.30;;;0.30;;
20655;SDS011;10487;53.320;8.672;2023-04-07T02:15:50;0.85;;;0.30;;
20655;SDS011;10487;53.320;8.672;2023-04-07T02:18:54;0.43;;;0.40;;
20655;SDS011;10487;53.320;8.672;2023-04-07T02:21:56;0.30;;;0.30;;
20655;SDS011;10487;53.320;8.672;2023-04-07T02:25:01;0.40;;;0.40;;
20655;SDS011;10487;53.320;8.672;2023-04-07T02:28:03;3.85;;;0.50;;
20655;SDS011;10487;53.320;8.672;2023-04-07T02:31:06;0.38;;;0.38;;
20655;SDS011;10487;53.320;8.672;2023-04-07T02:34:07;0.40;;;0.40;;
20655;SDS011;10487;53.320;8.672;2023-04-07T02:37:09;0.30;;;0.30;;
20655;SDS011;10487;53.320;8.672;2023-04-07T02:40:11;0.55;;;0.50;;
20655;SDS011;10487;53.320;8.672;2023-04-07T02:43:13;0.57;;;0.57;;
20655;SDS011;10487;53.320;8.672;2023-04-07T02:46:15;0.38;;;0.38;;
20655;SDS011;10487;53.320;8.672;2023-04-07T02:49:16;0.32;;;0.32;;
20655;SDS011;10487;53.320;8.672;2023-04-07T02:52:18;0.40;;;0.40;;
20655;SDS011;10487;53.320;8.672;2023-04-07T02:55:20;0.30;;;0.30;;
20655;SDS011;10487;53.320;8.672;2023-04-07T02:58:21;0.30;;;0.30;;
20655;SDS011;10487;53.320;8.672;2023-04-07T03:01:23;0.30;;;0.30;;
20655;SDS011;10487;53.320;8.672;2023-04-07T03:04:24;0.50;;;0.40;;
20655;SDS011;10487;53.320;8.672;2023-04-07T03:07:26;0.40;;;0.40;;
20655;SDS011;10487;53.320;8.672;2023-04-07T03:10:28;0.32;;;0.30;;
20655;SDS011;10487;53.320;8.672;2023-04-07T03:13:30;0.40;;;0.40;;
20655;SDS011;10487;53.320;8.672;2023-04-07T03:16:32;0.38;;;0.38;;
20655;SDS011;10487;53.320;8.672;2023-04-07T03:19:34;0.30;;;0.30;;
20655;SDS011;10487;53.320;8.672;2023-04-07T03:22:35;0.47;;;0.47;;
20655;SDS011;10487;53.320;8.672;2023-04-07T03:25:37;0.30;;;0.30;;
20655;SDS011;10487;53.320;8.672;2023-04-07T03:28:38;0.40;;;0.40;;
20655;SDS011;10487;53.320;8.672;2023-04-07T03:31:40;0.40;;;0.40;;
20655;SDS011;10487;53.320;8.672;2023-04-07T03:34:42;0.40;;;0.40;;
20655;SDS011;10487;53.320;8.672;2023-04-07T03:37:43;0.30;;;0.30;;
20655;SDS011;10487;53.320;8.672;2023-04-07T03:40:45;0.40;;;0.40;;
20655;SDS011;10487;53.320;8.672;2023-04-07T03:43:47;0.50;;;0.50;;
20655;SDS011;10487;53.320;8.672;2023-04-07T03:46:48;0.40;;;0.40;;
20655;SDS011;10487;53.320;8.672;2023-04-07T03:49:50;0.40;;;0.40;;
20655;SDS011;10487;53.320;8.672;2023-04-07T03:52:52;0.45;;;0.45;;
20655;SDS011;10487;53.320;8.672;2023-04-07T03:55:54;0.45;;;0.40;;
20655;SDS011;10487;53.320;8.672;2023-04-07T03:58:55;0.38;;;0.30;;
20655;SDS011;10487;53.320;8.672;2023-04-07T04:01:57;0.43;;;0.43;;
20655;SDS011;10487;53.320;8.672;2023-04-07T04:04:59;0.32;;;0.30;;
20655;SDS011;10487;53.320;8.672;2023-04-07T04:08:00;0.55;;;0.40;;
20655;SDS011;10487;53.320;8.672;2023-04-07T04:11:02;0.32;;;0.32;;
20655;SDS011;10487;53.320;8.672;2023-04-07T04:14:03;0.60;;;0.50;;
20655;SDS011;10487;53.320;8.672;2023-04-07T04:17:06;0.45;;;0.43;;
20655;SDS011;10487;53.320;8.672;2023-04-07T04:20:08;0.60;;;0.50;;
20655;SDS011;10487;53.320;8.672;2023-04-07T04:23:10;0.40;;;0.40;;
20655;SDS011;10487;53.320;8.672;2023-04-07T04:26:11;0.68;;;0.50;;
20655;SDS011;10487;53.320;8.672;2023-04-07T04:29:13;0.57;;;0.50;;
20655;SDS011;10487;53.320;8.672;2023-04-07T04:32:15;0.35;;;0.35;;
20655;SDS011;10487;53.320;8.672;2023-04-07T04:35:18;0.38;;;0.38;;
20655;SDS011;10487;53.320;8.672;2023-04-07T04:38:19;0.50;;;0.50;;
20655;SDS011;10487;53.320;8.672;2023-04-07T04:41:21;0.60;;;0.60;;
20655;SDS011;10487;53.320;8.672;2023-04-07T04:44:23;0.70;;;0.68;;
20655;SDS011;10487;53.320;8.672;2023-04-07T04:47:24;0.82;;;0.60;;
20655;SDS011;10487;53.320;8.672;2023-04-07T04:50:26;0.60;;;0.60;;
20655;SDS011;10487;53.320;8.672;2023-04-07T04:53:27;0.90;;;0.70;;
20655;SDS011;10487;53.320;8.672;2023-04-07T04:56:29;0.80;;;0.70;;
20655;SDS011;10487;53.320;8.672;2023-04-07T04:59:31;1.00;;;0.60;;
20655;SDS011;10487;53.320;8.672;2023-04-07T05:02:32;0.93;;;0.80;;
20655;SDS011;10487;53.320;8.672;2023-04-07T05:05:34;0.70;;;0.70;;
20655;SDS011;10487;53.320;8.672;2023-04-07T05:08:36;0.70;;;0.70;;
20655;SDS011;10487;53.320;8.672;2023-04-07T05:11:39;0.70;;;0.70;;
20655;SDS011;10487;53.320;8.672;2023-04-07T05:14:41;0.57;;;0.50;;
20655;SDS011;10487;53.320;8.672;2023-04-07T05:17:42;0.80;;;0.80;;
20655;SDS011;10487;53.320;8.672;2023-04-07T05:20:44;0.93;;;0.88;;
20655;SDS011;10487;53.320;8.672;2023-04-07T05:23:48;1.00;;;0.90;;
20655;SDS011;10487;53.320;8.672;2023-04-07T05:26:50;1.20;;;1.10;;
20655;SDS011;10487;53.320;8.672;2023-04-07T05:29:52;1.63;;;1.17;;
20655;SDS011;10487;53.320;8.672;2023-04-07T05:32:53;0.80;;;0.70;;
20655;SDS011;10487;53.320;8.672;2023-04-07T05:35:55;1.10;;;1.00;;
20655;SDS011;10487;53.320;8.672;2023-04-07T05:38:57;1.30;;;1.13;;
20655;SDS011;10487;53.320;8.672;2023-04-07T05:41:58;1.75;;;1.20;;
20655;SDS011;10487;53.320;8.672;2023-04-07T05:45:02;1.92;;;1.25;;
20655;SDS011;10487;53.320;8.672;2023-04-07T05:48:04;1.80;;;1.33;;
20655;SDS011;10487;53.320;8.672;2023-04-07T05:51:06;1.70;;;1.20;;
20655;SDS011;10487;53.320;8.672;2023-04-07T05:54:08;1.23;;;0.93;;
20655;SDS011;10487;53.320;8.672;2023-04-07T05:57:09;1.85;;;1.30;;
20655;SDS011;10487;53.320;8.672;2023-04-07T06:00:11;1.65;;;1.38;;
20655;SDS011;10487;53.320;8.672;2023-04-07T06:03:14;1.40;;;1.20;;
20655;SDS011;10487;53.320;8.672;2023-04-07T06:06:15;1.92;;;1.40;;
20655;SDS011;10487;53.320;8.672;2023-04-07T06:09:17;1.40;;;1.10;;
20655;SDS011;10487;53.320;8.672;2023-04-07T06:12:18;2.55;;;1.83;;
20655;SDS011;10487;53.320;8.672;2023-04-07T06:15:20;1.90;;;1.40;;
20655;SDS011;10487;53.320;8.672;2023-04-07T06:18:22;1.70;;;1.40;;
20655;SDS011;10487;53.320;8.672;2023-04-07T06:21:23;1.85;;;1.48;;
20655;SDS011;10487;53.320;8.672;2023-04-07T06:24:27;1.42;;;1.10;;
20655;SDS011;10487;53.320;8.672;2023-04-07T06:27:29;1.52;;;1.25;;
20655;SDS011;10487;53.320;8.672;2023-04-07T06:30:30;1.95;;;1.60;;
20655;SDS011;10487;53.320;8.672;2023-04-07T06:33:32;1.67;;;1.58;;
20655;SDS011;10487;53.320;8.672;2023-04-07T06:36:34;2.42;;;2.00;;
20655;SDS011;10487;53.320;8.672;2023-04-07T06:39:35;1.85;;;1.48;;
20655;SDS011;10487;53.320;8.672;2023-04-07T06:42:38;1.98;;;1.65;;
20655;SDS011;10487;53.320;8.672;2023-04-07T06:45:40;1.50;;;1.23;;
20655;SDS011;10487;53.320;8.672;2023-04-07T06:48:41;1.80;;;1.33;;
20655;SDS011;10487;53.320;8.672;2023-04-07T06:51:43;2.10;;;1.60;;
20655;SDS011;10487;53.320;8.672;2023-04-07T06:54:45;1.90;;;1.50;;
20655;SDS011;10487;53.320;8.672;2023-04-07T06:57:46;2.28;;;1.88;;
20655;SDS011;10487;53.320;8.672;2023-04-07T07:00:48;2.42;;;2.00;;
20655;SDS011;10487;53.320;8.672;2023-04-07T07:03:50;2.17;;;1.70;;
20655;SDS011;10487;53.320;8.672;2023-04-07T07:06:52;2.55;;;2.00;;
20655;SDS011;10487;53.320;8.672;2023-04-07T07:09:56;1.92;;;1.33;;
20655;SDS011;10487;53.320;8.672;2023-04-07T07:12:57;2.28;;;1.80;;
20655;SDS011;10487;53.320;8.672;2023-04-07T07:15:59;3.30;;;1.65;;
20655;SDS011;10487;53.320;8.672;2023-04-07T07:19:01;2.10;;;1.65;;
20655;SDS011;10487;53.320;8.672;2023-04-07T07:22:03;2.10;;;1.90;;
20655;SDS011;10487;53.320;8.672;2023-04-07T07:25:05;1.40;;;1.00;;
20655;SDS011;10487;53.320;8.672;2023-04-07T07:28:06;1.63;;;1.23;;
20655;SDS011;10487;53.320;8.672;2023-04-07T07:31:09;1.70;;;1.50;;
20655;SDS011;10487;53.320;8.672;2023-04-07T07:34:13;1.65;;;1.48;;
20655;SDS011;10487;53.320;8.672;2023-04-07T07:37:15;1.48;;;1.38;;
20655;SDS011;10487;53.320;8.672;2023-04-07T07:40:16;2.00;;;1.60;;
20655;SDS011;10487;53.320;8.672;2023-04-07T07:43:18;2.10;;;1.80;;
20655;SDS011;10487;53.320;8.672;2023-04-07T07:46:20;2.00;;;1.80;;
20655;SDS011;10487;53.320;8.672;2023-04-07T07:49:24;2.20;;;1.95;;
20655;SDS011;10487;53.320;8.672;2023-04-07T07:52:25;4.63;;;1.85;;
20655;SDS011;10487;53.320;8.672;2023-04-07T07:55:27;1.90;;;1.58;;
20655;SDS011;10487;53.320;8.672;2023-04-07T07:58:29;2.10;;;1.67;;
20655;SDS011;10487;53.320;8.672;2023-04-07T08:01:31;2.25;;;1.67;;
20655;SDS011;10487;53.320;8.672;2023-04-07T08:04:33;2.10;;;1.83;;
20655;SDS011;10487;53.320;8.672;2023-04-07T08:07:35;2.15;;;1.85;;
20655;SDS011;10487;53.320;8.672;2023-04-07T08:10:37;2.10;;;1.85;;
20655;SDS011;10487;53.320;8.672;2023-04-07T08:13:39;1.77;;;1.60;;
20655;SDS011;10487;53.320;8.672;2023-04-07T08:16:45;1.60;;;1.50;;
20655;SDS011;10487;53.320;8.672;2023-04-07T08:19:47;2.45;;;1.90;;
20655;SDS011;10487;53.320;8.672;2023-04-07T08:22:49;1.85;;;1.63;;
20655;SDS011;10487;53.320;8.672;2023-04-07T08:25:51;2.47;;;2.03;;
20655;SDS011;10487;53.320;8.672;2023-04-07T08:28:52;1.60;;;1.40;;
20655;SDS011;10487;53.320;8.672;2023-04-07T08:31:56;1.50;;;1.27;;
20655;SDS011;10487;53.320;8.672;2023-04-07T08:34:57;2.30;;;2.10;;
20655;SDS011;10487;53.320;8.672;2023-04-07T08:37:59;1.50;;;1.40;;
20655;SDS011;10487;53.320;8.672;2023-04-07T08:41:06;1.65;;;1.35;;
20655;SDS011;10487;53.320;8.672;2023-04-07T08:44:10;1.50;;;1.40;;
20655;SDS011;10487;53.320;8.672;2023-04-07T08:47:13;2.13;;;1.50;;
20655;SDS011;10487;53.320;8.672;2023-04-07T08:50:17;3.05;;;2.08;;
20655;SDS011;10487;53.320;8.672;2023-04-07T08:53:22;2.00;;;1.60;;
20655;SDS011;10487;53.320;8.672;2023-04-07T08:56:28;2.20;;;1.40;;
20655;SDS011;10487;53.320;8.672;2023-04-07T08:59:31;1.92;;;1.70;;
20655;SDS011;10487;53.320;8.672;2023-04-07T09:02:35;2.90;;;2.50;;
20655;SDS011;10487;53.320;8.672;2023-04-07T09:05:39;2.40;;;1.90;;
20655;SDS011;10487;53.320;8.672;2023-04-07T09:08:41;2.47;;;2.20;;
20655;SDS011;10487;53.320;8.672;2023-04-07T09:11:42;3.05;;;2.40;;
20655;SDS011;10487;53.320;8.672;2023-04-07T09:14:44;3.47;;;2.50;;
20655;SDS011;10487;53.320;8.672;2023-04-07T09:17:46;1.90;;;1.70;;
20655;SDS011;10487;53.320;8.672;2023-04-07T09:20:58;1.65;;;1.52;;
20655;SDS011;10487;53.320;8.672;2023-04-07T09:24:02;2.92;;;2.00;;
20655;SDS011;10487;53.320;8.672;2023-04-07T09:27:21;2.10;;;1.70;;
20655;SDS011;10487;53.320;8.672;2023-04-07T09:30:23;3.05;;;2.45;;
20655;SDS011;10487;53.320;8.672;2023-04-07T09:33:26;2.53;;;1.92;;
20655;SDS011;10487;53.320;8.672;2023-04-07T09:36:28;1.83;;;1.42;;
20655;SDS011;10487;53.320;8.672;2023-04-07T09:39:51;2.15;;;1.70;;
20655;SDS011;10487;53.320;8.672;2023-04-07T09:42:54;2.72;;;1.60;;
20655;SDS011;10487;53.320;8.672;2023-04-07T09:46:05;2.28;;;1.67;;
20655;SDS011;10487;53.320;8.672;2023-04-07T09:49:08;2.60;;;1.70;;
20655;SDS011;10487;53.320;8.672;2023-04-07T09:52:10;1.92;;;1.73;;
20655;SDS011;10487;53.320;8.672;2023-04-07T09:55:12;1.60;;;1.30;;
20655;SDS011;10487;53.320;8.672;2023-04-07T09:58:14;2.50;;;1.80;;
20655;SDS011;10487;53.320;8.672;2023-04-07T10:01:17;1.95;;;1.75;;
20655;SDS011;10487;53.320;8.672;2023-04-07T10:04:21;1.92;;;1.65;;
20655;SDS011;10487;53.320;8.672;2023-04-07T10:07:23;1.80;;;1.60;;
20655;SDS011;10487;53.320;8.672;2023-04-07T10:10:25;1.98;;;1.75;;
20655;SDS011;10487;53.320;8.672;2023-04-07T10:13:32;2.38;;;1.70;;
20655;SDS011;10487;53.320;8.672;2023-04-07T10:16:38;2.25;;;1.77;;
20655;SDS011;10487;53.320;8.672;2023-04-07T10:19:40;2.38;;;1.90;;
20655;SDS011;10487;53.320;8.672;2023-04-07T10:22:42;1.83;;;1.45;;
20655;SDS011;10487;53.320;8.672;2023-04-07T10:25:47;2.38;;;1.50;;
20655;SDS011;10487;53.320;8.672;2023-04-07T10:28:54;1.45;;;1.33;;
20655;SDS011;10487;53.320;8.672;2023-04-07T10:32:01;1.73;;;1.45;;
20655;SDS011;10487;53.320;8.672;2023-04-07T10:35:03;3.15;;;1.75;;
20655;SDS011;10487;53.320;8.672;2023-04-07T10:48:08;1.33;;;1.23;;
20655;SDS011;10487;53.320;8.672;2023-04-07T10:51:11;1.73;;;1.10;;
20655;SDS011;10487;53.320;8.672;2023-04-07T10:54:16;0.98;;;0.90;;
20655;SDS011;10487;53.320;8.672;2023-04-07T10:57:23;1.20;;;1.10;;
20655;SDS011;10487;53.320;8.672;2023-04-07T11:00:25;1.58;;;1.45;;
20655;SDS011;10487;53.320;8.672;2023-04-07T11:03:27;1.60;;;1.25;;
20655;SDS011;10487;53.320;8.672;2023-04-07T11:06:30;1.98;;;1.38;;
20655;SDS011;10487;53.320;8.672;2023-04-07T11:09:32;1.42;;;1.20;;
20655;SDS011;10487;53.320;8.672;2023-04-07T11:12:34;1.10;;;1.00;;
20655;SDS011;10487;53.320;8.672;2023-04-07T11:15:36;1.80;;;1.40;;
20655;SDS011;10487;53.320;8.672;2023-04-07T11:18:41;1.20;;;1.00;;
20655;SDS011;10487;53.320;8.672;2023-04-07T11:21:43;1.58;;;1.35;;
20655;SDS011;10487;53.320;8.672;2023-04-07T11:24:45;3.15;;;1.52;;
20655;SDS011;10487;53.320;8.672;2023-04-07T11:27:47;1.88;;;1.40;;
20655;SDS011;10487;53.320;8.672;2023-04-07T11:30:50;1.38;;;1.20;;
20655;SDS011;10487;53.320;8.672;2023-04-07T11:33:53;1.40;;;1.20;;
20655;SDS011;10487;53.320;8.672;2023-04-07T11:36:56;1.48;;;1.20;;
20655;SDS011;10487;53.320;8.672;2023-04-07T11:40:02;1.30;;;1.20;;
20655;SDS011;10487;53.320;8.672;2023-04-07T11:43:14;2.08;;;1.20;;
20655;SDS011;10487;53.320;8.672;2023-04-07T11:46:17;1.80;;;1.58;;
20655;SDS011;10487;53.320;8.672;2023-04-07T11:49:19;1.90;;;1.30;;
20655;SDS011;10487;53.320;8.672;2023-04-07T11:52:21;1.80;;;1.40;;
20655;SDS011;10487;53.320;8.672;2023-04-07T11:55:23;2.17;;;1.77;;
20655;SDS011;10487;53.320;8.672;2023-04-07T11:58:24;1.70;;;1.35;;
20655;SDS011;10487;53.320;8.672;2023-04-07T12:01:37;1.10;;;1.00;;
20655;SDS011;10487;53.320;8.672;2023-04-07T12:04:54;1.10;;;1.00;;
20655;SDS011;10487;53.320;8.672;2023-04-07T12:07:57;1.10;;;0.98;;
20655;SDS011;10487;53.320;8.672;2023-04-07T12:11:02;0.82;;;0.80;;
20655;SDS011;10487;53.320;8.672;2023-04-07T12:14:05;2.15;;;1.40;;
20655;SDS011;10487;53.320;8.672;2023-04-07T12:17:18;2.03;;;1.50;;
20655;SDS011;10487;53.320;8.672;2023-04-07T12:20:20;1.40;;;1.08;;
20655;SDS011;10487;53.320;8.672;2023-04-07T12:23:22;1.38;;;1.00;;
20655;SDS011;10487;53.320;8.672;2023-04-07T12:26:24;1.13;;;1.00;;
20655;SDS011;10487;53.320;8.672;2023-04-07T12:29:25;1.38;;;1.27;;
20655;SDS011;10487;53.320;8.672;2023-04-07T12:32:28;1.58;;;1.40;;
20655;SDS011;10487;53.320;8.672;2023-04-07T12:35:29;1.38;;;0.98;;
20655;SDS011;10487;53.320;8.672;2023-04-07T12:38:31;0.90;;;0.80;;
20655;SDS011;10487;53.320;8.672;2023-04-07T12:41:33;1.13;;;1.00;;
20655;SDS011;10487;53.320;8.672;2023-04-07T12:44:35;1.25;;;0.98;;
20655;SDS011;10487;53.320;8.672;2023-04-07T12:47:37;0.70;;;0.70;;
20655;SDS011;10487;53.320;8.672;2023-04-07T12:50:39;1.00;;;0.90;;
20655;SDS011;10487;53.320;8.672;2023-04-07T12:53:40;1.10;;;0.82;;
20655;SDS011;10487;53.320;8.672;2023-04-07T12:56:42;1.80;;;0.80;;
20655;SDS011;10487;53.320;8.672;2023-04-07T12:59:43;1.33;;;1.10;;
20655;SDS011;10487;53.320;8.672;2023-04-07T13:02:45;1.10;;;1.00;;
20655;SDS011;10487;53.320;8.672;2023-04-07T13:05:47;1.23;;;1.10;;
20655;SDS011;10487;53.320;8.672;2023-04-07T13:08:49;1.00;;;0.90;;
20655;SDS011;10487;53.320;8.672;2023-04-07T13:11:51;1.02;;;0.88;;
20655;SDS011;10487;53.320;8.672;2023-04-07T13:14:53;0.70;;;0.60;;
20655;SDS011;10487;53.320;8.672;2023-04-07T13:18:00;0.90;;;0.80;;
20655;SDS011;10487;53.320;8.672;2023-04-07T13:21:02;1.10;;;0.90;;
20655;SDS011;10487;53.320;8.672;2023-04-07T13:24:07;0.90;;;0.77;;
20655;SDS011;10487;53.320;8.672;2023-04-07T13:27:08;0.82;;;0.70;;
20655;SDS011;10487;53.320;8.672;2023-04-07T13:30:11;1.77;;;0.70;;
20655;SDS011;10487;53.320;8.672;2023-04-07T13:33:13;0.80;;;0.80;;
20655;SDS011;10487;53.320;8.672;2023-04-07T13:36:15;1.23;;;1.13;;
20655;SDS011;10487;53.320;8.672;2023-04-07T13:39:17;1.50;;;1.00;;
20655;SDS011;10487;53.320;8.672;2023-04-07T13:42:18;0.93;;;0.80;;
20655;SDS011;10487;53.320;8.672;2023-04-07T13:45:21;2.28;;;0.85;;
20655;SDS011;10487;53.320;8.672;2023-04-07T13:48:22;1.10;;;0.90;;
20655;SDS011;10487;53.320;8.672;2023-04-07T13:51:24;1.50;;;1.00;;
20655;SDS011;10487;53.320;8.672;2023-04-07T13:54:25;1.40;;;0.77;;
20655;SDS011;10487;53.320;8.672;2023-04-07T13:57:27;0.80;;;0.70;;
20655;SDS011;10487;53.320;8.672;2023-04-07T14:00:29;0.80;;;0.60;;
20655;SDS011;10487;53.320;8.672;2023-04-07T14:03:30;0.95;;;0.75;;
20655;SDS011;10487;53.320;8.672;2023-04-07T14:06:33;0.77;;;0.75;;
20655;SDS011;10487;53.320;8.672;2023-04-07T14:09:36;0.70;;;0.70;;
20655;SDS011;10487;53.320;8.672;2023-04-07T14:12:38;1.33;;;0.80;;
20655;SDS011;10487;53.320;8.672;2023-04-07T14:15:40;0.80;;;0.70;;
20655;SDS011;10487;53.320;8.672;2023-04-07T14:18:42;0.73;;;0.60;;
20655;SDS011;10487;53.320;8.672;2023-04-07T14:21:44;0.70;;;0.70;;
20655;SDS011;10487;53.320;8.672;2023-04-07T14:24:46;0.70;;;0.70;;
20655;SDS011;10487;53.320;8.672;2023-04-07T14:27:47;0.90;;;0.75;;
20655;SDS011;10487;53.320;8.672;2023-04-07T14:30:49;0.90;;;0.70;;
20655;SDS011;10487;53.320;8.672;2023-04-07T14:33:51;0.80;;;0.80;;
20655;SDS011;10487;53.320;8.672;2023-04-07T14:36:53;2.17;;;0.80;;
20655;SDS011;10487;53.320;8.672;2023-04-07T14:39:56;0.57;;;0.57;;
20655;SDS011;10487;53.320;8.672;2023-04-07T14:43:01;0.73;;;0.70;;
20655;SDS011;10487;53.320;8.672;2023-04-07T14:46:07;0.50;;;0.50;;
20655;SDS011;10487;53.320;8.672;2023-04-07T14:49:09;0.75;;;0.68;;
20655;SDS011;10487;53.320;8.672;2023-04-07T14:52:11;1.05;;;0.90;;
20655;SDS011;10487;53.320;8.672;2023-04-07T14:55:14;0.75;;;0.60;;
20655;SDS011;10487;53.320;8.672;2023-04-07T14:58:16;0.65;;;0.60;;
20655;SDS011;10487;53.320;8.672;2023-04-07T15:01:18;0.88;;;0.70;;
20655;SDS011;10487;53.320;8.672;2023-04-07T15:04:19;0.88;;;0.80;;
20655;SDS011;10487;53.320;8.672;2023-04-07T15:07:21;0.50;;;0.50;;
20655;SDS011;10487;53.320;8.672;2023-04-07T15:10:23;0.57;;;0.57;;
20655;SDS011;10487;53.320;8.672;2023-04-07T15:13:24;0.60;;;0.60;;
20655;SDS011;10487;53.320;8.672;2023-04-07T15:16:26;0.50;;;0.50;;
20655;SDS011;10487;53.320;8.672;2023-04-07T15:19:27;0.50;;;0.50;;
20655;SDS011;10487;53.320;8.672;2023-04-07T15:22:30;0.60;;;0.60;;
20655;SDS011;10487;53.320;8.672;2023-04-07T15:25:31;1.48;;;0.57;;
20655;SDS011;10487;53.320;8.672;2023-04-07T15:28:33;0.50;;;0.50;;
20655;SDS011;10487;53.320;8.672;2023-04-07T15:31:35;0.60;;;0.50;;
20655;SDS011;10487;53.320;8.672;2023-04-07T15:34:36;0.60;;;0.50;;
20655;SDS011;10487;53.320;8.672;2023-04-07T15:37:38;0.60;;;0.60;;
20655;SDS011;10487;53.320;8.672;2023-04-07T15:40:39;0.45;;;0.43;;
20655;SDS011;10487;53.320;8.672;2023-04-07T15:43:41;0.45;;;0.45;;
20655;SDS011;10487;53.320;8.672;2023-04-07T15:46:43;0.50;;;0.50;;
20655;SDS011;10487;53.320;8.672;2023-04-07T15:49:45;0.60;;;0.60;;
20655;SDS011;10487;53.320;8.672;2023-04-07T15:52:46;0.70;;;0.57;;
20655;SDS011;10487;53.320;8.672;2023-04-07T15:55:48;0.57;;;0.57;;
20655;SDS011;10487;53.320;8.672;2023-04-07T15:58:50;0.50;;;0.50;;
20655;SDS011;10487;53.320;8.672;2023-04-07T16:01:51;0.50;;;0.50;;
20655;SDS011;10487;53.320;8.672;2023-04-07T16:04:54;0.52;;;0.50;;
20655;SDS011;10487;53.320;8.672;2023-04-07T16:07:55;0.73;;;0.50;;
20655;SDS011;10487;53.320;8.672;2023-04-07T16:10:57;0.60;;;0.60;;
20655;SDS011;10487;53.320;8.672;2023-04-07T16:13:59;0.70;;;0.60;;
20655;SDS011;10487;53.320;8.672;2023-04-07T16:17:00;0.50;;;0.50;;
20655;SDS011;10487;53.320;8.672;2023-04-07T16:20:02;0.63;;;0.60;;
20655;SDS011;10487;53.320;8.672;2023-04-07T16:23:04;0.52;;;0.50;;
20655;SDS011;10487;53.320;8.672;2023-04-07T16:26:06;0.55;;;0.55;;
20655;SDS011;10487;53.320;8.672;2023-04-07T16:29:07;0.43;;;0.43;;
20655;SDS011;10487;53.320;8.672;2023-04-07T16:32:09;0.32;;;0.32;;
20655;SDS011;10487;53.320;8.672;2023-04-07T16:35:14;0.65;;;0.50;;
20655;SDS011;10487;53.320;8.672;2023-04-07T16:38:16;0.60;;;0.60;;
20655;SDS011;10487;53.320;8.672;2023-04-07T16:41:17;0.60;;;0.60;;
20655;SDS011;10487;53.320;8.672;2023-04-07T16:44:20;0.60;;;0.50;;
20655;SDS011;10487;53.320;8.672;2023-04-07T16:47:23;0.40;;;0.40;;
20655;SDS011;10487;53.320;8.672;2023-04-07T16:50:29;0.50;;;0.50;;
20655;SDS011;10487;53.320;8.672;2023-04-07T16:53:31;0.55;;;0.55;;
20655;SDS011;10487;53.320;8.672;2023-04-07T16:56:32;0.68;;;0.40;;
20655;SDS011;10487;53.320;8.672;2023-04-07T16:59:34;0.60;;;0.40;;
20655;SDS011;10487;53.320;8.672;2023-04-07T17:02:36;0.47;;;0.40;;
20655;SDS011;10487;53.320;8.672;2023-04-07T17:05:38;0.40;;;0.40;;
20655;SDS011;10487;53.320;8.672;2023-04-07T17:08:40;0.40;;;0.40;;
20655;SDS011;10487;53.320;8.672;2023-04-07T17:11:42;0.40;;;0.40;;
20655;SDS011;10487;53.320;8.672;2023-04-07T17:14:43;0.40;;;0.40;;
20655;SDS011;10487;53.320;8.672;2023-04-07T17:17:45;0.20;;;0.20;;
20655;SDS011;10487;53.320;8.672;2023-04-07T17:20:47;0.30;;;0.30;;
20655;SDS011;10487;53.320;8.672;2023-04-07T17:23:56;0.28;;;0.28;;
20655;SDS011;10487;53.320;8.672;2023-04-07T17:26:57;0.30;;;0.30;;
20655;SDS011;10487;53.320;8.672;2023-04-07T17:29:59;0.40;;;0.40;;
20655;SDS011;10487;53.320;8.672;2023-04-07T17:33:01;0.35;;;0.30;;
20655;SDS011;10487;53.320;8.672;2023-04-07T17:36:03;0.30;;;0.30;;
20655;SDS011;10487;53.320;8.672;2023-04-07T17:39:05;0.20;;;0.20;;
20655;SDS011;10487;53.320;8.672;2023-04-07T17:42:07;0.30;;;0.30;;
20655;SDS011;10487;53.320;8.672;2023-04-07T17:45:11;0.22;;;0.22;;
20655;SDS011;10487;53.320;8.672;2023-04-07T17:48:13;0.20;;;0.20;;
20655;SDS011;10487;53.320;8.672;2023-04-07T17:51:17;0.20;;;0.20;;
20655;SDS011;10487;53.320;8.672;2023-04-07T17:54:18;0.60;;;0.30;;
20655;SDS011;10487;53.320;8.672;2023-04-07T17:57:20;0.32;;;0.30;;
20655;SDS011;10487;53.320;8.672;2023-04-07T18:00:21;0.60;;;0.40;;
20655;SDS011;10487;53.320;8.672;2023-04-07T18:03:23;0.38;;;0.38;;
20655;SDS011;10487;53.320;8.672;2023-04-07T18:06:25;0.60;;;0.47;;
20655;SDS011;10487;53.320;8.672;2023-04-07T18:09:28;0.30;;;0.30;;
20655;SDS011;10487;53.320;8.672;2023-04-07T18:12:30;0.30;;;0.30;;
20655;SDS011;10487;53.320;8.672;2023-04-07T18:15:32;0.40;;;0.40;;
20655;SDS011;10487;53.320;8.672;2023-04-07T18:18:34;0.60;;;0.43;;
20655;SDS011;10487;53.320;8.672;2023-04-07T18:21:38;0.40;;;0.40;;
20655;SDS011;10487;53.320;8.672;2023-04-07T18:24:39;0.20;;;0.20;;
20655;SDS011;10487;53.320;8.672;2023-04-07T18:27:41;0.43;;;0.30;;
20655;SDS011;10487;53.320;8.672;2023-04-07T18:30:43;0.55;;;0.35;;
20655;SDS011;10487;53.320;8.672;2023-04-07T18:33:44;0.82;;;0.63;;
20655;SDS011;10487;53.320;8.672;2023-04-07T18:36:46;0.60;;;0.57;;